sensor_id;sensor_type;location;lat;lon;timestamp;P1;durP1;ratioP1;P2;durP2;ratioP2
41327;SDS011;27075;47.636;-2.058;2022-12-07T00:03:16;9.52;;;8.23;;
41327;SDS011;27075;47.636;-2.058;2022-12-07T00:05:42;9.15;;;7.43;;
41327;SDS011;27075;47.636;-2.058;2022-12-07T00:08:08;10.98;;;8.98;;
41327;SDS011;27075;47.636;-2.058;2022-12-07T00:10:34;9.48;;;8.48;;
41327;SDS011;27075;47.636;-2.058;2022-12-07T00:13:00;9.98;;;7.78;;
41327;SDS011;27075;47.636;-2.058;2022-12-07T00:15:26;9.40;;;7.57;;
41327;SDS011;27075;47.636;-2.058;2022-12-07T00:17:52;10.55;;;7.68;;
41327;SDS011;27075;47.636;-2.058;2022-12-07T00:20:18;13.65;;;9.23;;
41327;SDS011;27075;47.636;-2.058;2022-12-07T00:22:44;10.65;;;8.85;;
41327;SDS011;27075;47.636;-2.058;2022-12-07T00:25:10;9.93;;;8.05;;
41327;SDS011;27075;47.636;-2.058;2022-12-07T00:27:36;9.68;;;8.13;;
41327;SDS011;27075;47.636;-2.058;2022-12-07T00:30:02;12.70;;;9.82;;
41327;SDS011;27075;47.636;-2.058;2022-12-07T00:32:28;14.35;;;8.45;;
41327;SDS011;27075;47.636;-2.058;2022-12-07T00:34:54;11.10;;;9.40;;
41327;SDS011;27075;47.636;-2.058;2022-12-07T00:37:20;11.32;;;8.75;;
41327;SDS011;27075;47.636;-2.058;2022-12-07T00:39:46;13.75;;;9.35;;
41327;SDS011;27075;47.636;-2.058;2022-12-07T00:42:12;12.98;;;9.18;;
41327;SDS011;27075;47.636;-2.058;2022-12-07T00:44:38;10.95;;;9.27;;
41327;SDS011;27075;47.636;-2.058;2022-12-07T00:47:04;11.90;;;9.63;;
41327;SDS011;27075;47.636;-2.058;2022-12-07T00:49:30;12.07;;;8.43;;
41327;SDS011;27075;47.636;-2.058;2022-12-07T00:51:56;11.60;;;8.40;;
41327;SDS011;27075;47.636;-2.058;2022-12-07T00:54:22;8.68;;;7.68;;
41327;SDS011;27075;47.636;-2.058;2022-12-07T00:56:48;14.77;;;9.07;;
41327;SDS011;27075;47.636;-2.058;2022-12-07T00:59:14;10.35;;;9.15;;
41327;SDS011;27075;47.636;-2.058;2022-12-07T01:01:40;11.27;;;8.88;;
41327;SDS011;27075;47.636;-2.058;2022-12-07T01:04:06;10.43;;;8.18;;
41327;SDS011;27075;47.636;-2.058;2022-12-07T01:06:32;9.57;;;7.68;;
41327;SDS011;27075;47.636;-2.058;2022-12-07T01:08:58;11.45;;;8.27;;
41327;SDS011;27075;47.636;-2.058;2022-12-07T01:11:26;14.55;;;8.75;;
41327;SDS011;27075;47.636;-2.058;2022-12-07T01:13:53;11.38;;;7.85;;
41327;SDS011;27075;47.636;-2.058;2022-12-07T01:16:20;9.48;;;8.18;;
41327;SDS011;27075;47.636;-2.058;2022-12-07T01:18:47;9.70;;;7.05;;
41327;SDS011;27075;47.636;-2.058;2022-12-07T01:21:15;12.43;;;8.15;;
41327;SDS011;27075;47.636;-2.058;2022-12-07T01:23:42;12.10;;;9.25;;
41327;SDS011;27075;47.636;-2.058;2022-12-07T01:26:12;10.65;;;9.05;;
41327;SDS011;27075;47.636;-2.058;2022-12-07T01:28:38;12.55;;;9.82;;
41327;SDS011;27075;47.636;-2.058;2022-12-07T01:31:05;9.82;;;8.98;;
41327;SDS011;27075;47.636;-2.058;2022-12-07T01:33:33;10.77;;;9.63;;
41327;SDS011;27075;47.636;-2.058;2022-12-07T01:38:44;9.48;;;8.57;;
41327;SDS011;27075;47.636;-2.058;2022-12-07T01:41:10;9.40;;;8.48;;
41327;SDS011;27075;47.636;-2.058;2022-12-07T01:44:06;9.70;;;8.60;;
41327;SDS011;27075;47.636;-2.058;2022-12-07T01:46:23;10.30;;;8.63;;
41327;SDS011;27075;47.636;-2.058;2022-12-07T01:48:49;8.55;;;7.53;;
41327;SDS011;27075;47.636;-2.058;2022-12-07T01:51:15;12.70;;;9.65;;
41327;SDS011;27075;47.636;-2.058;2022-12-07T01:53:42;14.77;;;9.93;;
41327;SDS011;27075;47.636;-2.058;2022-12-07T01:56:10;11.65;;;9.32;;
41327;SDS011;27075;47.636;-2.058;2022-12-07T01:58:36;14.80;;;10.23;;
41327;SDS011;27075;47.636;-2.058;2022-12-07T02:01:02;12.18;;;9.27;;
41327;SDS011;27075;47.636;-2.058;2022-12-07T02:05:54;14.32;;;9.75;;
41327;SDS011;27075;47.636;-2.058;2022-12-07T02:08:21;10.38;;;9.25;;
41327;SDS011;27075;47.636;-2.058;2022-12-07T02:10:47;10.65;;;9.50;;
41327;SDS011;27075;47.636;-2.058;2022-12-07T02:13:16;13.70;;;10.23;;
41327;SDS011;27075;47.636;-2.058;2022-12-07T02:18:14;12.77;;;9.18;;
41327;SDS011;27075;47.636;-2.058;2022-12-07T02:20:49;12.65;;;9.18;;
41327;SDS011;27075;47.636;-2.058;2022-12-07T02:28:30;10.57;;;9.48;;
41327;SDS011;27075;47.636;-2.058;2022-12-07T02:30:58;14.15;;;10.35;;
41327;SDS011;27075;47.636;-2.058;2022-12-07T02:33:32;10.70;;;9.40;;
41327;SDS011;27075;47.636;-2.058;2022-12-07T02:41:31;12.05;;;10.55;;
41327;SDS011;27075;47.636;-2.058;2022-12-07T02:44:03;12.50;;;11.02;;
41327;SDS011;27075;47.636;-2.058;2022-12-07T02:46:32;14.18;;;10.48;;
41327;SDS011;27075;47.636;-2.058;2022-12-07T02:48:59;11.88;;;9.85;;
41327;SDS011;27075;47.636;-2.058;2022-12-07T02:51:25;13.07;;;10.35;;
41327;SDS011;27075;47.636;-2.058;2022-12-07T02:53:51;16.00;;;10.85;;
41327;SDS011;27075;47.636;-2.058;2022-12-07T02:58:54;12.98;;;9.73;;
41327;SDS011;27075;47.636;-2.058;2022-12-07T03:09:53;13.93;;;9.70;;
41327;SDS011;27075;47.636;-2.058;2022-12-07T03:12:42;12.13;;;9.23;;
41327;SDS011;27075;47.636;-2.058;2022-12-07T03:15:11;15.27;;;11.13;;
41327;SDS011;27075;47.636;-2.058;2022-12-07T03:17:38;13.15;;;10.65;;
41327;SDS011;27075;47.636;-2.058;2022-12-07T03:20:06;11.98;;;10.40;;
41327;SDS011;27075;47.636;-2.058;2022-12-07T03:22:34;13.00;;;10.10;;
41327;SDS011;27075;47.636;-2.058;2022-12-07T03:25:03;12.45;;;10.65;;
41327;SDS011;27075;47.636;-2.058;2022-12-07T03:27:40;13.40;;;10.45;;
41327;SDS011;27075;47.636;-2.058;2022-12-07T03:38:29;12.85;;;10.48;;
41327;SDS011;27075;47.636;-2.058;2022-12-07T03:40:37;11.77;;;9.75;;
41327;SDS011;27075;47.636;-2.058;2022-12-07T03:43:04;14.55;;;11.70;;
41327;SDS011;27075;47.636;-2.058;2022-12-07T03:45:42;13.20;;;10.32;;
41327;SDS011;27075;47.636;-2.058;2022-12-07T03:48:54;11.82;;;9.75;;
41327;SDS011;27075;47.636;-2.058;2022-12-07T03:53:38;14.30;;;11.82;;
41327;SDS011;27075;47.636;-2.058;2022-12-07T03:56:06;10.65;;;9.38;;
41327;SDS011;27075;47.636;-2.058;2022-12-07T03:58:32;12.50;;;10.15;;
41327;SDS011;27075;47.636;-2.058;2022-12-07T04:00:58;12.13;;;10.60;;
41327;SDS011;27075;47.636;-2.058;2022-12-07T04:03:24;13.35;;;11.15;;
41327;SDS011;27075;47.636;-2.058;2022-12-07T04:05:50;12.50;;;10.88;;
41327;SDS011;27075;47.636;-2.058;2022-12-07T04:08:16;13.32;;;10.43;;
41327;SDS011;27075;47.636;-2.058;2022-12-07T04:10:42;16.98;;;12.35;;
41327;SDS011;27075;47.636;-2.058;2022-12-07T04:13:08;14.02;;;10.90;;
41327;SDS011;27075;47.636;-2.058;2022-12-07T04:15:34;16.38;;;12.77;;
41327;SDS011;27075;47.636;-2.058;2022-12-07T04:18:00;13.63;;;11.52;;
41327;SDS011;27075;47.636;-2.058;2022-12-07T04:20:26;13.50;;;11.18;;
41327;SDS011;27075;47.636;-2.058;2022-12-07T04:22:52;15.23;;;11.25;;
41327;SDS011;27075;47.636;-2.058;2022-12-07T04:25:18;11.70;;;10.23;;
41327;SDS011;27075;47.636;-2.058;2022-12-07T04:27:44;14.30;;;10.90;;
41327;SDS011;27075;47.636;-2.058;2022-12-07T04:30:11;14.10;;;10.75;;
41327;SDS011;27075;47.636;-2.058;2022-12-07T04:32:37;14.68;;;11.68;;
41327;SDS011;27075;47.636;-2.058;2022-12-07T04:35:03;14.35;;;10.73;;
41327;SDS011;27075;47.636;-2.058;2022-12-07T04:39:55;11.70;;;9.75;;
41327;SDS011;27075;47.636;-2.058;2022-12-07T04:42:21;12.38;;;11.05;;
41327;SDS011;27075;47.636;-2.058;2022-12-07T04:44:47;15.15;;;10.45;;
41327;SDS011;27075;47.636;-2.058;2022-12-07T04:47:13;13.43;;;10.32;;
41327;SDS011;27075;47.636;-2.058;2022-12-07T04:49:39;12.57;;;10.75;;
41327;SDS011;27075;47.636;-2.058;2022-12-07T04:52:05;13.98;;;11.05;;
41327;SDS011;27075;47.636;-2.058;2022-12-07T04:54:31;13.02;;;11.00;;
41327;SDS011;27075;47.636;-2.058;2022-12-07T04:56:57;14.63;;;10.65;;
41327;SDS011;27075;47.636;-2.058;2022-12-07T04:59:23;16.23;;;12.25;;
41327;SDS011;27075;47.636;-2.058;2022-12-07T05:01:49;20.40;;;12.38;;
41327;SDS011;27075;47.636;-2.058;2022-12-07T05:04:15;13.85;;;12.27;;
41327;SDS011;27075;47.636;-2.058;2022-12-07T05:06:42;14.43;;;10.52;;
41327;SDS011;27075;47.636;-2.058;2022-12-07T05:09:08;14.98;;;11.38;;
41327;SDS011;27075;47.636;-2.058;2022-12-07T05:11:34;13.23;;;9.85;;
41327;SDS011;27075;47.636;-2.058;2022-12-07T05:14:11;15.20;;;11.90;;
41327;SDS011;27075;47.636;-2.058;2022-12-07T05:16:38;13.73;;;10.65;;
41327;SDS011;27075;47.636;-2.058;2022-12-07T05:19:04;14.77;;;10.77;;
41327;SDS011;27075;47.636;-2.058;2022-12-07T05:21:30;16.08;;;11.63;;
41327;SDS011;27075;47.636;-2.058;2022-12-07T05:23:56;14.57;;;10.80;;
41327;SDS011;27075;47.636;-2.058;2022-12-07T05:26:22;10.65;;;9.65;;
41327;SDS011;27075;47.636;-2.058;2022-12-07T05:28:52;15.43;;;12.10;;
41327;SDS011;27075;47.636;-2.058;2022-12-07T05:31:18;12.38;;;9.98;;
41327;SDS011;27075;47.636;-2.058;2022-12-07T05:33:44;13.00;;;10.95;;
41327;SDS011;27075;47.636;-2.058;2022-12-07T05:36:10;13.52;;;11.23;;
41327;SDS011;27075;47.636;-2.058;2022-12-07T05:38:37;16.10;;;12.68;;
41327;SDS011;27075;47.636;-2.058;2022-12-07T05:41:04;15.98;;;11.65;;
41327;SDS011;27075;47.636;-2.058;2022-12-07T05:43:30;14.90;;;10.55;;
41327;SDS011;27075;47.636;-2.058;2022-12-07T05:45:56;15.05;;;11.40;;
41327;SDS011;27075;47.636;-2.058;2022-12-07T05:48:22;14.98;;;11.73;;
41327;SDS011;27075;47.636;-2.058;2022-12-07T05:50:49;16.98;;;14.35;;
41327;SDS011;27075;47.636;-2.058;2022-12-07T05:55:41;11.40;;;10.00;;
41327;SDS011;27075;47.636;-2.058;2022-12-07T05:58:07;17.42;;;13.75;;
41327;SDS011;27075;47.636;-2.058;2022-12-07T06:00:53;16.42;;;12.45;;
41327;SDS011;27075;47.636;-2.058;2022-12-07T06:03:19;14.95;;;10.88;;
41327;SDS011;27075;47.636;-2.058;2022-12-07T06:05:45;17.60;;;12.23;;
41327;SDS011;27075;47.636;-2.058;2022-12-07T06:08:11;14.38;;;11.10;;
41327;SDS011;27075;47.636;-2.058;2022-12-07T06:10:39;12.75;;;9.60;;
41327;SDS011;27075;47.636;-2.058;2022-12-07T06:13:06;12.48;;;10.57;;
41327;SDS011;27075;47.636;-2.058;2022-12-07T06:15:32;12.88;;;10.10;;
41327;SDS011;27075;47.636;-2.058;2022-12-07T06:17:58;13.90;;;10.15;;
41327;SDS011;27075;47.636;-2.058;2022-12-07T06:20:24;14.82;;;11.55;;
41327;SDS011;27075;47.636;-2.058;2022-12-07T06:22:50;13.88;;;11.45;;
41327;SDS011;27075;47.636;-2.058;2022-12-07T06:25:16;12.13;;;10.80;;
41327;SDS011;27075;47.636;-2.058;2022-12-07T06:27:42;13.55;;;10.95;;
41327;SDS011;27075;47.636;-2.058;2022-12-07T06:30:08;14.50;;;11.23;;
41327;SDS011;27075;47.636;-2.058;2022-12-07T06:32:35;12.88;;;10.10;;
41327;SDS011;27075;47.636;-2.058;2022-12-07T06:35:02;15.50;;;11.15;;
41327;SDS011;27075;47.636;-2.058;2022-12-07T06:37:28;12.82;;;10.55;;
41327;SDS011;27075;47.636;-2.058;2022-12-07T06:39:54;16.52;;;11.63;;
41327;SDS011;27075;47.636;-2.058;2022-12-07T06:42:20;17.48;;;12.43;;
41327;SDS011;27075;47.636;-2.058;2022-12-07T06:44:46;14.90;;;11.98;;
41327;SDS011;27075;47.636;-2.058;2022-12-07T06:47:12;12.05;;;10.70;;
41327;SDS011;27075;47.636;-2.058;2022-12-07T06:49:38;12.07;;;9.32;;
41327;SDS011;27075;47.636;-2.058;2022-12-07T06:52:04;13.35;;;9.82;;
41327;SDS011;27075;47.636;-2.058;2022-12-07T06:54:30;12.60;;;10.95;;
41327;SDS011;27075;47.636;-2.058;2022-12-07T06:56:56;14.73;;;11.70;;
41327;SDS011;27075;47.636;-2.058;2022-12-07T06:59:22;16.60;;;10.43;;
41327;SDS011;27075;47.636;-2.058;2022-12-07T07:01:48;18.63;;;12.75;;
41327;SDS011;27075;47.636;-2.058;2022-12-07T07:04:14;12.82;;;10.95;;
41327;SDS011;27075;47.636;-2.058;2022-12-07T07:06:40;14.48;;;12.63;;
41327;SDS011;27075;47.636;-2.058;2022-12-07T07:09:06;11.82;;;10.63;;
41327;SDS011;27075;47.636;-2.058;2022-12-07T07:11:34;12.35;;;11.07;;
41327;SDS011;27075;47.636;-2.058;2022-12-07T07:14:00;13.68;;;11.05;;
41327;SDS011;27075;47.636;-2.058;2022-12-07T07:16:27;16.27;;;11.13;;
41327;SDS011;27075;47.636;-2.058;2022-12-07T07:18:54;12.02;;;10.43;;
41327;SDS011;27075;47.636;-2.058;2022-12-07T07:23:46;11.40;;;9.90;;
41327;SDS011;27075;47.636;-2.058;2022-12-07T07:26:12;11.15;;;9.77;;
41327;SDS011;27075;47.636;-2.058;2022-12-07T07:28:38;12.80;;;11.48;;
41327;SDS011;27075;47.636;-2.058;2022-12-07T07:31:04;13.55;;;10.57;;
41327;SDS011;27075;47.636;-2.058;2022-12-07T07:35:56;12.93;;;10.13;;
41327;SDS011;27075;47.636;-2.058;2022-12-07T07:38:22;12.65;;;10.60;;
41327;SDS011;27075;47.636;-2.058;2022-12-07T07:40:48;12.85;;;11.30;;
41327;SDS011;27075;47.636;-2.058;2022-12-07T07:43:14;14.50;;;11.65;;
41327;SDS011;27075;47.636;-2.058;2022-12-07T07:45:40;12.90;;;10.32;;
41327;SDS011;27075;47.636;-2.058;2022-12-07T07:48:06;24.15;;;13.63;;
41327;SDS011;27075;47.636;-2.058;2022-12-07T07:50:32;12.82;;;11.50;;
41327;SDS011;27075;47.636;-2.058;2022-12-07T07:52:58;15.52;;;12.07;;
41327;SDS011;27075;47.636;-2.058;2022-12-07T07:55:24;17.88;;;11.70;;
41327;SDS011;27075;47.636;-2.058;2022-12-07T07:57:50;14.48;;;12.32;;
41327;SDS011;27075;47.636;-2.058;2022-12-07T08:00:16;14.55;;;10.32;;
41327;SDS011;27075;47.636;-2.058;2022-12-07T08:02:43;17.77;;;11.45;;
41327;SDS011;27075;47.636;-2.058;2022-12-07T08:05:12;16.95;;;12.40;;
41327;SDS011;27075;47.636;-2.058;2022-12-07T08:07:39;13.77;;;11.57;;
41327;SDS011;27075;47.636;-2.058;2022-12-07T08:12:31;16.13;;;11.43;;
41327;SDS011;27075;47.636;-2.058;2022-12-07T08:14:57;17.40;;;13.05;;
41327;SDS011;27075;47.636;-2.058;2022-12-07T08:17:23;16.67;;;10.77;;
41327;SDS011;27075;47.636;-2.058;2022-12-07T08:19:49;14.65;;;11.90;;
41327;SDS011;27075;47.636;-2.058;2022-12-07T08:22:15;15.60;;;12.23;;
41327;SDS011;27075;47.636;-2.058;2022-12-07T08:24:41;14.05;;;11.50;;
41327;SDS011;27075;47.636;-2.058;2022-12-07T08:27:07;11.77;;;10.23;;
41327;SDS011;27075;47.636;-2.058;2022-12-07T08:29:33;11.35;;;10.10;;
41327;SDS011;27075;47.636;-2.058;2022-12-07T08:31:59;11.30;;;9.80;;
41327;SDS011;27075;47.636;-2.058;2022-12-07T08:34:26;13.60;;;9.52;;
41327;SDS011;27075;47.636;-2.058;2022-12-07T08:36:52;13.27;;;10.15;;
41327;SDS011;27075;47.636;-2.058;2022-12-07T08:39:18;13.55;;;10.07;;
41327;SDS011;27075;47.636;-2.058;2022-12-07T08:41:44;14.57;;;11.35;;
41327;SDS011;27075;47.636;-2.058;2022-12-07T08:44:10;11.40;;;10.20;;
41327;SDS011;27075;47.636;-2.058;2022-12-07T08:46:44;11.25;;;10.10;;
41327;SDS011;27075;47.636;-2.058;2022-12-07T08:49:16;15.65;;;9.60;;
41327;SDS011;27075;47.636;-2.058;2022-12-07T08:51:43;14.48;;;9.90;;
41327;SDS011;27075;47.636;-2.058;2022-12-07T08:56:35;11.05;;;8.38;;
41327;SDS011;27075;47.636;-2.058;2022-12-07T08:59:01;10.95;;;9.20;;
41327;SDS011;27075;47.636;-2.058;2022-12-07T09:01:28;11.75;;;9.85;;
41327;SDS011;27075;47.636;-2.058;2022-12-07T09:06:19;13.27;;;9.68;;
41327;SDS011;27075;47.636;-2.058;2022-12-07T09:08:46;11.43;;;9.15;;
41327;SDS011;27075;47.636;-2.058;2022-12-07T09:11:13;13.35;;;10.10;;
41327;SDS011;27075;47.636;-2.058;2022-12-07T09:13:39;11.70;;;9.20;;
41327;SDS011;27075;47.636;-2.058;2022-12-07T09:16:05;11.90;;;9.02;;
41327;SDS011;27075;47.636;-2.058;2022-12-07T09:18:31;10.98;;;9.88;;
41327;SDS011;27075;47.636;-2.058;2022-12-07T09:20:57;11.40;;;9.20;;
41327;SDS011;27075;47.636;-2.058;2022-12-07T09:23:23;10.38;;;8.38;;
41327;SDS011;27075;47.636;-2.058;2022-12-07T09:25:49;11.95;;;9.85;;
41327;SDS011;27075;47.636;-2.058;2022-12-07T09:28:15;12.77;;;9.07;;
41327;SDS011;27075;47.636;-2.058;2022-12-07T09:30:47;12.90;;;9.70;;
41327;SDS011;27075;47.636;-2.058;2022-12-07T09:33:13;11.93;;;9.85;;
41327;SDS011;27075;47.636;-2.058;2022-12-07T09:35:46;13.32;;;9.45;;
41327;SDS011;27075;47.636;-2.058;2022-12-07T09:38:12;14.98;;;10.10;;
41327;SDS011;27075;47.636;-2.058;2022-12-07T09:40:38;11.73;;;10.27;;
41327;SDS011;27075;47.636;-2.058;2022-12-07T09:43:05;12.75;;;10.00;;
41327;SDS011;27075;47.636;-2.058;2022-12-07T09:45:34;12.50;;;9.82;;
41327;SDS011;27075;47.636;-2.058;2022-12-07T09:48:02;10.75;;;9.52;;
41327;SDS011;27075;47.636;-2.058;2022-12-07T09:50:28;11.38;;;9.27;;
41327;SDS011;27075;47.636;-2.058;2022-12-07T09:52:55;10.85;;;9.07;;
41327;SDS011;27075;47.636;-2.058;2022-12-07T09:55:30;15.18;;;10.20;;
41327;SDS011;27075;47.636;-2.058;2022-12-07T09:57:56;10.35;;;9.07;;
41327;SDS011;27075;47.636;-2.058;2022-12-07T10:00:24;15.95;;;9.95;;
41327;SDS011;27075;47.636;-2.058;2022-12-07T10:02:55;12.55;;;10.75;;
41327;SDS011;27075;47.636;-2.058;2022-12-07T10:05:26;15.55;;;10.77;;
41327;SDS011;27075;47.636;-2.058;2022-12-07T10:07:53;13.13;;;10.02;;
41327;SDS011;27075;47.636;-2.058;2022-12-07T10:10:40;11.60;;;10.18;;
41327;SDS011;27075;47.636;-2.058;2022-12-07T10:13:12;12.45;;;9.07;;
41327;SDS011;27075;47.636;-2.058;2022-12-07T10:18:18;13.73;;;9.85;;
41327;SDS011;27075;47.636;-2.058;2022-12-07T10:20:45;12.18;;;10.40;;
41327;SDS011;27075;47.636;-2.058;2022-12-07T10:23:17;12.65;;;9.27;;
41327;SDS011;27075;47.636;-2.058;2022-12-07T10:25:44;14.60;;;10.43;;
41327;SDS011;27075;47.636;-2.058;2022-12-07T10:28:11;14.23;;;9.18;;
41327;SDS011;27075;47.636;-2.058;2022-12-07T10:35:59;14.18;;;9.90;;
41327;SDS011;27075;47.636;-2.058;2022-12-07T10:38:26;12.20;;;9.55;;
41327;SDS011;27075;47.636;-2.058;2022-12-07T10:41:05;11.07;;;8.30;;
41327;SDS011;27075;47.636;-2.058;2022-12-07T10:43:32;12.90;;;9.63;;
41327;SDS011;27075;47.636;-2.058;2022-12-07T10:51:17;11.18;;;9.63;;
41327;SDS011;27075;47.636;-2.058;2022-12-07T10:54:03;13.07;;;9.30;;
41327;SDS011;27075;47.636;-2.058;2022-12-07T11:18:02;10.32;;;8.88;;
41327;SDS011;27075;47.636;-2.058;2022-12-07T11:23:16;13.55;;;9.50;;
41327;SDS011;27075;47.636;-2.058;2022-12-07T11:26:29;12.90;;;8.70;;
41327;SDS011;27075;47.636;-2.058;2022-12-07T11:31:12;11.73;;;9.25;;
41327;SDS011;27075;47.636;-2.058;2022-12-07T11:33:44;10.18;;;8.13;;
41327;SDS011;27075;47.636;-2.058;2022-12-07T11:38:45;11.48;;;9.43;;
41327;SDS011;27075;47.636;-2.058;2022-12-07T11:41:13;12.38;;;8.00;;
41327;SDS011;27075;47.636;-2.058;2022-12-07T11:43:50;9.55;;;8.55;;
41327;SDS011;27075;47.636;-2.058;2022-12-07T11:46:18;18.13;;;9.98;;
41327;SDS011;27075;47.636;-2.058;2022-12-07T11:49:00;13.85;;;9.38;;
41327;SDS011;27075;47.636;-2.058;2022-12-07T11:51:28;14.05;;;10.90;;
41327;SDS011;27075;47.636;-2.058;2022-12-07T11:54:11;11.82;;;10.35;;
41327;SDS011;27075;47.636;-2.058;2022-12-07T11:56:38;10.65;;;8.55;;
41327;SDS011;27075;47.636;-2.058;2022-12-07T11:59:17;9.57;;;8.60;;
41327;SDS011;27075;47.636;-2.058;2022-12-07T12:07:06;10.05;;;7.45;;
41327;SDS011;27075;47.636;-2.058;2022-12-07T12:09:33;10.85;;;7.63;;
41327;SDS011;27075;47.636;-2.058;2022-12-07T12:20:32;9.95;;;7.38;;
41327;SDS011;27075;47.636;-2.058;2022-12-07T12:25:30;14.02;;;10.27;;
41327;SDS011;27075;47.636;-2.058;2022-12-07T12:27:58;12.43;;;9.30;;
41327;SDS011;27075;47.636;-2.058;2022-12-07T12:30:32;11.85;;;9.32;;
41327;SDS011;27075;47.636;-2.058;2022-12-07T12:33:11;9.13;;;7.32;;
41327;SDS011;27075;47.636;-2.058;2022-12-07T12:35:38;7.93;;;6.93;;
41327;SDS011;27075;47.636;-2.058;2022-12-07T12:40:43;16.17;;;8.57;;
41327;SDS011;27075;47.636;-2.058;2022-12-07T12:46:35;10.90;;;9.70;;
41327;SDS011;27075;47.636;-2.058;2022-12-07T12:48:40;11.57;;;8.40;;
41327;SDS011;27075;47.636;-2.058;2022-12-07T12:51:40;11.70;;;9.82;;
41327;SDS011;27075;47.636;-2.058;2022-12-07T12:54:03;9.98;;;8.43;;
41327;SDS011;27075;47.636;-2.058;2022-12-07T12:56:35;12.48;;;10.82;;
41327;SDS011;27075;47.636;-2.058;2022-12-07T13:01:42;11.88;;;9.50;;
41327;SDS011;27075;47.636;-2.058;2022-12-07T13:04:21;8.88;;;7.78;;
41327;SDS011;27075;47.636;-2.058;2022-12-07T13:06:48;10.77;;;8.65;;
41327;SDS011;27075;47.636;-2.058;2022-12-07T13:09:25;12.05;;;8.57;;
41327;SDS011;27075;47.636;-2.058;2022-12-07T13:12:03;11.27;;;9.13;;
41327;SDS011;27075;47.636;-2.058;2022-12-07T13:20:03;9.13;;;8.07;;
41327;SDS011;27075;47.636;-2.058;2022-12-07T13:24:56;11.25;;;8.85;;
41327;SDS011;27075;47.636;-2.058;2022-12-07T13:27:24;10.73;;;8.60;;
41327;SDS011;27075;47.636;-2.058;2022-12-07T13:29:51;10.05;;;8.93;;
41327;SDS011;27075;47.636;-2.058;2022-12-07T13:32:23;11.48;;;9.02;;
41327;SDS011;27075;47.636;-2.058;2022-12-07T13:34:49;9.10;;;7.72;;
41327;SDS011;27075;47.636;-2.058;2022-12-07T13:39:45;10.32;;;8.98;;
41327;SDS011;27075;47.636;-2.058;2022-12-07T13:42:19;12.40;;;8.68;;
41327;SDS011;27075;47.636;-2.058;2022-12-07T13:44:47;14.55;;;7.65;;
41327;SDS011;27075;47.636;-2.058;2022-12-07T13:47:28;10.35;;;7.40;;
41327;SDS011;27075;47.636;-2.058;2022-12-07T13:49:56;9.13;;;7.63;;
41327;SDS011;27075;47.636;-2.058;2022-12-07T13:55:05;11.32;;;8.55;;
41327;SDS011;27075;47.636;-2.058;2022-12-07T13:57:35;14.48;;;10.23;;
41327;SDS011;27075;47.636;-2.058;2022-12-07T14:00:02;22.45;;;15.20;;
41327;SDS011;27075;47.636;-2.058;2022-12-07T14:02:34;16.40;;;13.20;;
41327;SDS011;27075;47.636;-2.058;2022-12-07T14:07:36;14.15;;;9.55;;
41327;SDS011;27075;47.636;-2.058;2022-12-07T14:12:52;10.40;;;9.43;;
41327;SDS011;27075;47.636;-2.058;2022-12-07T14:15:22;13.10;;;9.63;;
41327;SDS011;27075;47.636;-2.058;2022-12-07T14:17:49;13.43;;;10.93;;
41327;SDS011;27075;47.636;-2.058;2022-12-07T14:23:01;10.00;;;8.70;;
41327;SDS011;27075;47.636;-2.058;2022-12-07T14:26:03;11.60;;;8.98;;
41327;SDS011;27075;47.636;-2.058;2022-12-07T14:28:30;10.50;;;9.43;;
41327;SDS011;27075;47.636;-2.058;2022-12-07T14:30:57;10.95;;;8.15;;
41327;SDS011;27075;47.636;-2.058;2022-12-07T14:33:24;13.27;;;8.85;;
41327;SDS011;27075;47.636;-2.058;2022-12-07T14:35:50;12.43;;;9.70;;
41327;SDS011;27075;47.636;-2.058;2022-12-07T14:38:20;13.23;;;9.27;;
41327;SDS011;27075;47.636;-2.058;2022-12-07T14:40:46;9.40;;;8.27;;
41327;SDS011;27075;47.636;-2.058;2022-12-07T14:43:13;14.27;;;9.63;;
41327;SDS011;27075;47.636;-2.058;2022-12-07T14:45:40;10.20;;;8.38;;
41327;SDS011;27075;47.636;-2.058;2022-12-07T14:48:07;10.73;;;8.73;;
41327;SDS011;27075;47.636;-2.058;2022-12-07T14:50:35;11.32;;;9.50;;
41327;SDS011;27075;47.636;-2.058;2022-12-07T14:53:03;13.35;;;9.80;;
41327;SDS011;27075;47.636;-2.058;2022-12-07T14:55:32;13.57;;;11.05;;
41327;SDS011;27075;47.636;-2.058;2022-12-07T14:57:58;21.70;;;8.32;;
41327;SDS011;27075;47.636;-2.058;2022-12-07T15:00:24;10.40;;;8.15;;
41327;SDS011;27075;47.636;-2.058;2022-12-07T15:02:51;8.60;;;7.35;;
41327;SDS011;27075;47.636;-2.058;2022-12-07T15:05:18;9.13;;;7.82;;
41327;SDS011;27075;47.636;-2.058;2022-12-07T15:07:44;8.52;;;7.82;;
41327;SDS011;27075;47.636;-2.058;2022-12-07T15:10:28;10.20;;;7.72;;
41327;SDS011;27075;47.636;-2.058;2022-12-07T15:12:55;10.00;;;8.43;;
41327;SDS011;27075;47.636;-2.058;2022-12-07T15:18:08;10.82;;;9.10;;
41327;SDS011;27075;47.636;-2.058;2022-12-07T15:20:34;10.70;;;9.18;;
41327;SDS011;27075;47.636;-2.058;2022-12-07T15:23:00;14.80;;;10.05;;
41327;SDS011;27075;47.636;-2.058;2022-12-07T15:25:26;8.85;;;8.02;;
41327;SDS011;27075;47.636;-2.058;2022-12-07T15:27:52;12.93;;;8.98;;
41327;SDS011;27075;47.636;-2.058;2022-12-07T15:30:18;12.60;;;9.10;;
41327;SDS011;27075;47.636;-2.058;2022-12-07T15:32:44;9.60;;;8.27;;
41327;SDS011;27075;47.636;-2.058;2022-12-07T15:35:14;9.55;;;8.57;;
41327;SDS011;27075;47.636;-2.058;2022-12-07T15:37:40;9.77;;;8.35;;
41327;SDS011;27075;47.636;-2.058;2022-12-07T15:40:06;10.00;;;8.45;;
41327;SDS011;27075;47.636;-2.058;2022-12-07T15:44:58;11.25;;;8.55;;
41327;SDS011;27075;47.636;-2.058;2022-12-07T15:47:34;9.02;;;8.13;;
41327;SDS011;27075;47.636;-2.058;2022-12-07T15:50:02;10.90;;;8.63;;
41327;SDS011;27075;47.636;-2.058;2022-12-07T15:52:29;14.85;;;9.98;;
41327;SDS011;27075;47.636;-2.058;2022-12-07T15:54:55;9.65;;;8.63;;
41327;SDS011;27075;47.636;-2.058;2022-12-07T15:57:21;12.88;;;10.65;;
41327;SDS011;27075;47.636;-2.058;2022-12-07T15:59:47;12.85;;;9.90;;
41327;SDS011;27075;47.636;-2.058;2022-12-07T16:02:13;11.77;;;10.10;;
41327;SDS011;27075;47.636;-2.058;2022-12-07T16:04:39;13.30;;;9.30;;
41327;SDS011;27075;47.636;-2.058;2022-12-07T16:07:05;10.07;;;8.25;;
41327;SDS011;27075;47.636;-2.058;2022-12-07T16:09:31;12.57;;;9.32;;
41327;SDS011;27075;47.636;-2.058;2022-12-07T16:11:57;15.88;;;11.85;;
41327;SDS011;27075;47.636;-2.058;2022-12-07T16:14:23;16.45;;;12.77;;
41327;SDS011;27075;47.636;-2.058;2022-12-07T16:16:49;19.88;;;15.68;;
41327;SDS011;27075;47.636;-2.058;2022-12-07T16:19:15;20.80;;;12.93;;
41327;SDS011;27075;47.636;-2.058;2022-12-07T16:21:42;19.88;;;12.10;;
41327;SDS011;27075;47.636;-2.058;2022-12-07T16:24:08;20.05;;;13.38;;
41327;SDS011;27075;47.636;-2.058;2022-12-07T16:26:35;15.95;;;12.75;;
41327;SDS011;27075;47.636;-2.058;2022-12-07T16:29:01;18.05;;;13.85;;
41327;SDS011;27075;47.636;-2.058;2022-12-07T16:31:28;19.42;;;13.55;;
41327;SDS011;27075;47.636;-2.058;2022-12-07T16:33:54;15.90;;;12.45;;
41327;SDS011;27075;47.636;-2.058;2022-12-07T16:36:21;16.60;;;12.70;;
41327;SDS011;27075;47.636;-2.058;2022-12-07T16:38:49;16.08;;;13.02;;
41327;SDS011;27075;47.636;-2.058;2022-12-07T16:43:41;16.90;;;13.00;;
41327;SDS011;27075;47.636;-2.058;2022-12-07T16:46:07;17.75;;;14.32;;
41327;SDS011;27075;47.636;-2.058;2022-12-07T16:48:37;19.27;;;14.63;;
41327;SDS011;27075;47.636;-2.058;2022-12-07T16:51:06;19.67;;;15.07;;
41327;SDS011;27075;47.636;-2.058;2022-12-07T16:53:36;15.52;;;13.63;;
41327;SDS011;27075;47.636;-2.058;2022-12-07T16:56:02;17.10;;;14.07;;